createdAt,value
2023-04-22T00:01:28.913Z,5.87
2023-04-22T00:03:56.003Z,5.20
2023-04-22T00:06:23.013Z,4.23
2023-04-22T00:08:50.219Z,4.20
2023-04-22T00:11:17.022Z,6.47
2023-04-22T00:13:44.509Z,5.47
2023-04-22T00:16:11.771Z,5.27
2023-04-22T00:18:38.660Z,6.33
2023-04-22T00:21:06.179Z,5.87
2023-04-22T00:23:33.117Z,3.60
2023-04-22T00:26:00.848Z,6.67
2023-04-22T00:28:27.863Z,4.33
2023-04-22T00:30:54.790Z,5.70
2023-04-22T00:33:21.623Z,5.53
2023-04-22T00:35:48.485Z,5.87
2023-04-22T00:38:15.494Z,4.80
2023-04-22T00:40:42.400Z,6.20
2023-04-22T00:43:09.686Z,5.63
2023-04-22T00:45:37.740Z,6.27
2023-04-22T00:48:05.253Z,6.73
2023-04-22T00:50:32.229Z,6.37
2023-04-22T00:52:59.058Z,5.27
2023-04-22T00:55:26.322Z,4.57
2023-04-22T00:57:55.442Z,6.70
2023-04-22T01:00:27.268Z,6.47
2023-04-22T01:02:55.995Z,6.60
2023-04-22T01:05:24.842Z,9.33
2023-04-22T01:07:51.726Z,4.80
2023-04-22T01:10:18.936Z,8.10
2023-04-22T01:12:45.829Z,6.13
2023-04-22T01:15:13.070Z,5.40
2023-04-22T01:17:40.032Z,4.70
2023-04-22T01:20:10.320Z,9.73
2023-04-22T01:22:42.801Z,7.03
2023-04-22T01:25:11.555Z,7.00
2023-04-22T01:27:39.434Z,6.33
2023-04-22T01:30:07.338Z,5.37
2023-04-22T01:32:34.378Z,5.67
2023-04-22T01:35:01.232Z,7.00
2023-04-22T01:37:29.068Z,6.43
2023-04-22T01:39:58.210Z,4.83
2023-04-22T01:42:25.598Z,8.43
2023-04-22T01:44:52.515Z,8.47
2023-04-22T01:47:19.451Z,5.77
2023-04-22T01:49:46.395Z,4.93
2023-04-22T01:52:13.573Z,6.53
2023-04-22T01:54:41.605Z,5.57
2023-04-22T01:57:14.141Z,7.63
2023-04-22T01:59:41.922Z,7.00
2023-04-22T02:02:09.152Z,7.37
2023-04-22T02:04:36.508Z,6.17
2023-04-22T02:07:03.390Z,6.70
2023-04-22T02:09:30.359Z,5.00
2023-04-22T02:11:57.189Z,6.57
2023-04-22T02:14:24.067Z,5.87
2023-04-22T02:16:51.713Z,9.97
2023-04-22T02:19:18.589Z,6.17
2023-04-22T02:21:45.467Z,6.77
2023-04-22T02:24:12.282Z,6.50
2023-04-22T02:26:39.157Z,8.33
2023-04-22T02:29:06.124Z,6.50
2023-04-22T02:31:33.016Z,5.77
2023-04-22T02:33:59.915Z,5.70
2023-04-22T02:36:27.731Z,5.93
2023-04-22T02:38:55.252Z,8.57
2023-04-22T02:41:22.144Z,6.23
2023-04-22T02:43:49.058Z,7.40
2023-04-22T02:46:16.568Z,7.73
2023-04-22T02:48:43.625Z,9.33
2023-04-22T02:51:11.310Z,8.00
2023-04-22T02:53:38.391Z,5.50
2023-04-22T02:56:05.756Z,6.97
2023-04-22T02:58:32.619Z,6.27
2023-04-22T03:00:59.541Z,6.53
2023-04-22T03:03:26.593Z,6.17
2023-04-22T03:05:53.590Z,9.47
2023-04-22T03:08:20.884Z,6.73
2023-04-22T03:10:47.961Z,7.93
2023-04-22T03:13:14.798Z,7.97
2023-04-22T03:15:42.004Z,8.57
2023-04-22T03:18:09.422Z,8.00
2023-04-22T03:20:36.706Z,7.03
2023-04-22T03:23:03.536Z,7.73
2023-04-22T03:25:30.456Z,7.50
2023-04-22T03:27:57.231Z,6.50
2023-04-22T03:30:24.175Z,6.03
2023-04-22T03:32:52.513Z,7.43
2023-04-22T03:35:20.636Z,5.83
2023-04-22T03:37:47.518Z,7.67
2023-04-22T03:40:14.469Z,6.43
2023-04-22T03:42:41.300Z,8.07
2023-04-22T03:45:08.326Z,7.97
2023-04-22T03:47:35.181Z,7.60
2023-04-22T03:50:02.129Z,6.63
2023-04-22T03:52:28.951Z,6.53
2023-04-22T03:54:55.766Z,7.47
2023-04-22T03:57:22.615Z,8.03
2023-04-22T03:59:49.396Z,6.70
2023-04-22T04:02:16.345Z,8.27
2023-04-22T04:04:43.611Z,7.23
2023-04-22T04:07:10.577Z,6.33
2023-04-22T04:09:37.721Z,6.47
2023-04-22T04:12:04.905Z,7.43
2023-04-22T04:14:31.708Z,6.70
2023-04-22T04:16:58.632Z,7.50
2023-04-22T04:19:25.514Z,7.43
2023-04-22T04:21:52.417Z,6.90
2023-04-22T04:24:19.378Z,11.53
2023-04-22T04:26:46.647Z,6.90
2023-04-22T04:29:13.705Z,7.90
2023-04-22T04:31:41.353Z,8.67
2023-04-22T04:34:08.221Z,8.13
2023-04-22T04:36:35.334Z,10.63
2023-04-22T04:39:02.148Z,7.80
2023-04-22T04:41:29.541Z,9.33
2023-04-22T04:43:56.576Z,7.80
2023-04-22T04:46:23.529Z,7.63
2023-04-22T04:48:51.704Z,10.60
2023-04-22T04:51:20.371Z,10.57
2023-04-22T04:53:47.461Z,9.23
2023-04-22T04:56:14.317Z,10.63
2023-04-22T04:58:41.098Z,9.40
2023-04-22T05:01:07.957Z,12.30
2023-04-22T05:03:34.845Z,8.93
2023-04-22T05:06:01.849Z,10.07
2023-04-22T05:08:28.718Z,8.50
2023-04-22T05:10:56.043Z,8.97
2023-04-22T05:13:22.878Z,9.30
2023-04-22T05:15:49.806Z,10.43
2023-04-22T05:18:16.640Z,9.17
2023-04-22T05:20:43.595Z,9.73
2023-04-22T05:23:10.420Z,9.53
2023-04-22T05:25:37.442Z,10.50
2023-04-22T05:28:04.302Z,10.23
2023-04-22T05:30:31.107Z,9.10
2023-04-22T05:32:58.093Z,12.33
2023-04-22T05:35:24.952Z,9.80
2023-04-22T05:37:51.766Z,8.13
2023-04-22T05:40:18.720Z,10.37
2023-04-22T05:42:45.541Z,9.57
2023-04-22T05:45:12.432Z,9.50
2023-04-22T05:47:39.365Z,11.37
2023-04-22T05:50:07.359Z,8.60
2023-04-22T05:52:34.253Z,10.17
2023-04-22T05:55:01.622Z,7.30
2023-04-22T05:57:28.434Z,7.93
2023-04-22T05:59:55.347Z,8.27
2023-04-22T06:02:22.298Z,7.53
2023-04-22T06:04:49.597Z,9.20
2023-04-22T06:07:17.010Z,7.73
2023-04-22T06:09:43.923Z,6.17
2023-04-22T06:12:11.371Z,8.50
2023-04-22T06:14:38.202Z,6.30
2023-04-22T06:17:05.078Z,4.77
2023-04-22T06:19:31.984Z,7.63
2023-04-22T06:21:58.832Z,6.33
2023-04-22T06:24:25.697Z,5.03
2023-04-22T06:26:52.528Z,5.10
2023-04-22T06:29:19.633Z,5.20
2023-04-22T06:31:46.479Z,5.80
2023-04-22T06:34:13.321Z,5.97
2023-04-22T06:36:40.265Z,5.73
2023-04-22T06:39:07.419Z,5.67
2023-04-22T06:41:34.561Z,5.07
2023-04-22T06:44:01.500Z,5.63
2023-04-22T06:46:28.418Z,4.80
2023-04-22T06:48:55.349Z,5.73
2023-04-22T06:51:22.211Z,6.53
2023-04-22T06:53:49.079Z,6.53
2023-04-22T06:56:15.989Z,4.80
2023-04-22T06:58:42.789Z,5.50
2023-04-22T07:01:09.708Z,5.00
2023-04-22T07:03:36.660Z,4.90
2023-04-22T07:06:04.354Z,5.43
2023-04-22T07:08:31.195Z,4.80
2023-04-22T07:10:58.162Z,5.73
2023-04-22T07:13:26.916Z,4.90
2023-04-22T07:15:53.793Z,5.30
2023-04-22T07:18:20.704Z,6.60
2023-04-22T07:20:47.507Z,4.10
2023-04-22T07:23:14.381Z,4.27
2023-04-22T07:25:41.223Z,2.87
2023-04-22T07:28:08.066Z,5.07
2023-04-22T07:30:34.862Z,2.80
2023-04-22T07:33:01.819Z,3.17
2023-04-22T07:35:29.779Z,3.33
2023-04-22T07:37:56.689Z,3.00
2023-04-22T07:40:23.481Z,3.83
2023-04-22T07:42:50.325Z,3.20
2023-04-22T07:45:17.291Z,2.90
2023-04-22T07:47:44.137Z,3.83
2023-04-22T07:50:11.531Z,2.80
2023-04-22T07:52:38.369Z,4.50
2023-04-22T07:55:06.340Z,3.43
2023-04-22T07:57:38.429Z,6.13
2023-04-22T08:00:08.093Z,4.20
2023-04-22T08:02:35.179Z,5.40
2023-04-22T08:05:02.189Z,4.17
2023-04-22T08:07:32.978Z,5.17
2023-04-22T08:10:00.635Z,5.03
2023-04-22T08:12:28.014Z,4.83
2023-04-22T08:14:54.878Z,5.43
2023-04-22T08:17:21.815Z,4.53
2023-04-22T08:19:49.153Z,4.33
2023-04-22T08:22:17.815Z,6.73
2023-04-22T08:24:44.930Z,6.73
2023-04-22T08:27:11.938Z,3.80
2023-04-22T08:29:38.991Z,4.07
2023-04-22T08:32:06.284Z,4.63
2023-04-22T08:34:33.298Z,4.00
2023-04-22T08:37:00.198Z,3.47
2023-04-22T08:39:27.030Z,4.70
2023-04-22T08:41:56.231Z,7.00
2023-04-22T08:44:23.217Z,4.57
2023-04-22T08:46:51.917Z,4.80
2023-04-22T08:49:19.683Z,3.87
2023-04-22T08:51:46.570Z,4.63
2023-04-22T08:54:13.428Z,4.27
2023-04-22T08:56:44.452Z,4.40
2023-04-22T08:59:12.794Z,4.47
2023-04-22T09:01:41.484Z,4.43
2023-04-22T09:04:10.859Z,4.50
2023-04-22T09:06:38.956Z,5.27
2023-04-22T09:09:06.078Z,4.40
2023-04-22T09:11:33.737Z,6.17
2023-04-22T09:14:00.784Z,5.00
2023-04-22T09:16:44.680Z,4.90
2023-04-22T09:19:13.141Z,6.33
2023-04-22T09:21:41.094Z,3.90
2023-04-22T09:24:10.809Z,3.90
2023-04-22T09:26:42.521Z,7.87
2023-04-22T09:29:15.406Z,4.23
2023-04-22T09:31:42.964Z,4.00
2023-04-22T09:34:09.809Z,5.17
2023-04-22T09:36:39.450Z,4.10
2023-04-22T09:39:08.227Z,4.37
2023-04-22T09:41:40.369Z,3.17
2023-04-22T09:44:16.086Z,4.83
2023-04-22T09:46:44.980Z,4.40
2023-04-22T09:49:11.856Z,3.30
2023-04-22T09:51:42.526Z,5.97
2023-04-22T09:54:11.577Z,3.53
2023-04-22T09:56:51.370Z,4.20
2023-04-22T09:59:26.268Z,5.53
2023-04-22T10:01:56.695Z,3.80
2023-04-22T10:04:25.606Z,3.57
2023-04-22T10:06:56.913Z,3.43
2023-04-22T10:09:25.595Z,2.57
2023-04-22T10:11:55.275Z,2.87
2023-04-22T10:14:23.184Z,2.60
2023-04-22T10:16:56.731Z,3.20
2023-04-22T10:19:26.061Z,3.50
2023-04-22T10:21:57.547Z,3.90
2023-04-22T10:24:27.999Z,3.73
2023-04-22T10:27:01.391Z,3.77
2023-04-22T10:29:38.654Z,3.83
2023-04-22T10:32:18.024Z,3.53
2023-04-22T10:34:47.792Z,3.60
2023-04-22T10:37:19.115Z,3.30
2023-04-22T10:40:16.653Z,3.60
2023-04-22T10:42:53.081Z,3.50
2023-04-22T10:45:25.534Z,2.80
2023-04-22T10:47:52.546Z,3.23
2023-04-22T10:50:27.711Z,2.87
2023-04-22T10:53:03.194Z,2.80
2023-04-22T10:55:51.870Z,2.33
2023-04-22T10:58:21.431Z,3.23
2023-04-22T11:00:54.228Z,2.90
2023-04-22T11:03:28.593Z,3.13
2023-04-22T11:06:22.497Z,3.10
2023-04-22T11:08:51.197Z,2.97
2023-04-22T11:11:19.605Z,3.20
2023-04-22T11:13:50.842Z,2.57
2023-04-22T11:16:22.343Z,2.70
2023-04-22T11:18:49.602Z,3.60
2023-04-22T11:21:16.851Z,2.10
2023-04-22T11:23:54.230Z,2.13
2023-04-22T11:26:35.308Z,1.77
2023-04-22T11:29:02.294Z,2.07
2023-04-22T11:31:29.267Z,1.97
2023-04-22T11:34:00.260Z,1.97
2023-04-22T11:36:27.699Z,1.60
2023-04-22T11:38:56.330Z,2.40
2023-04-22T11:41:23.755Z,2.23
2023-04-22T11:43:50.583Z,2.20
2023-04-22T11:46:28.114Z,2.07
2023-04-22T11:48:55.085Z,1.80
2023-04-22T11:51:21.901Z,1.63
2023-04-22T11:53:51.582Z,2.00
2023-04-22T11:56:18.433Z,2.17
2023-04-22T11:58:45.269Z,5.20
2023-04-22T12:01:14.069Z,2.40
2023-04-22T12:03:42.380Z,2.00
2023-04-22T12:06:09.632Z,2.67
2023-04-22T12:08:44.419Z,3.20
2023-04-22T12:11:13.497Z,2.27
2023-04-22T12:13:46.341Z,3.13
2023-04-22T12:16:19.513Z,2.80
2023-04-22T12:18:54.805Z,1.70
2023-04-22T12:21:28.156Z,1.90
2023-04-22T12:24:04.750Z,2.17
2023-04-22T12:26:31.840Z,3.93
2023-04-22T12:29:00.282Z,1.50
2023-04-22T12:31:28.309Z,1.90
2023-04-22T12:33:55.895Z,2.53
2023-04-22T12:36:26.423Z,1.27
2023-04-22T12:38:53.318Z,2.70
2023-04-22T12:41:20.178Z,2.23
2023-04-22T12:43:47.666Z,2.13
2023-04-22T12:46:14.711Z,1.40
2023-04-22T12:48:42.768Z,1.47
2023-04-22T12:51:09.667Z,1.30
2023-04-22T12:53:36.550Z,3.03
2023-04-22T12:56:03.505Z,1.80
2023-04-22T12:58:30.390Z,2.63
2023-04-22T13:00:57.238Z,0.90
2023-04-22T13:03:24.387Z,1.40
2023-04-22T13:05:52.294Z,1.60
2023-04-22T13:08:19.136Z,1.20
2023-04-22T13:10:46.254Z,1.70
2023-04-22T13:13:17.570Z,0.97
2023-04-22T13:15:47.605Z,1.60
2023-04-22T13:18:16.749Z,1.90
2023-04-22T13:20:43.848Z,1.53
2023-04-22T13:23:11.379Z,2.43
2023-04-22T13:25:38.271Z,3.47
2023-04-22T13:28:05.082Z,1.40
2023-04-22T13:30:31.887Z,1.90
2023-04-22T13:32:58.814Z,1.70
2023-04-22T13:35:25.669Z,1.60
2023-04-22T13:37:52.648Z,3.70
2023-04-22T13:40:19.611Z,1.17
2023-04-22T13:42:46.558Z,1.50
2023-04-22T13:45:13.511Z,2.20
2023-04-22T13:47:40.541Z,1.43
2023-04-22T13:50:09.105Z,2.55
2023-04-22T13:52:36.662Z,1.43
2023-04-22T13:55:04.377Z,1.50
2023-04-22T13:57:31.565Z,1.63
2023-04-22T13:59:58.416Z,1.00
2023-04-22T14:02:25.299Z,1.10
2023-04-22T14:04:52.336Z,0.77
2023-04-22T14:07:19.385Z,2.08
2023-04-22T14:09:46.207Z,1.20
2023-04-22T14:12:13.356Z,1.45
2023-04-22T14:14:40.241Z,1.63
2023-04-22T14:17:08.430Z,1.30
2023-04-22T14:19:38.982Z,1.05
2023-04-22T14:22:06.655Z,0.95
2023-04-22T14:24:33.592Z,1.10
2023-04-22T14:27:01.730Z,1.08
2023-04-22T14:29:29.834Z,1.50
2023-04-22T14:31:58.320Z,1.48
2023-04-22T14:34:26.865Z,1.23
2023-04-22T14:36:53.854Z,1.73
2023-04-22T14:39:21.436Z,1.10
2023-04-22T14:41:48.548Z,1.80
2023-04-22T14:44:15.761Z,1.05
2023-04-22T14:46:42.627Z,1.83
2023-04-22T14:49:09.451Z,1.20
2023-04-22T14:51:36.614Z,2.08
2023-04-22T14:54:03.550Z,0.90
2023-04-22T14:56:30.527Z,0.90
2023-04-22T14:58:57.391Z,1.50
2023-04-22T15:01:24.298Z,1.17
2023-04-22T15:03:52.130Z,0.68
2023-04-22T15:06:19.190Z,1.02
2023-04-22T15:08:46.270Z,2.25
2023-04-22T15:11:13.249Z,1.65
2023-04-22T15:13:40.312Z,0.90
2023-04-22T15:16:07.301Z,1.20
2023-04-22T15:18:35.508Z,1.25
2023-04-22T15:21:03.371Z,1.25
2023-04-22T15:23:30.216Z,2.50
2023-04-22T15:25:57.069Z,1.17
2023-04-22T15:28:24.461Z,1.05
2023-04-22T15:30:51.361Z,1.17
2023-04-22T15:33:18.211Z,2.10
2023-04-22T15:35:46.724Z,1.42
2023-04-22T15:38:13.995Z,1.55
2023-04-22T15:40:40.888Z,1.52
2023-04-22T15:43:07.688Z,1.65
2023-04-22T15:45:35.697Z,0.93
2023-04-22T15:48:03.090Z,1.63
2023-04-22T15:50:29.915Z,2.13
2023-04-22T15:52:56.756Z,1.98
2023-04-22T15:55:23.629Z,3.30
2023-04-22T15:57:50.499Z,1.63
2023-04-22T16:00:17.484Z,1.20
2023-04-22T16:02:45.136Z,1.40
2023-04-22T16:05:13.902Z,1.25
2023-04-22T16:07:40.772Z,1.98
2023-04-22T16:10:09.037Z,0.90
2023-04-22T16:12:35.886Z,2.25
2023-04-22T16:15:02.862Z,1.10
2023-04-22T16:17:30.122Z,1.58
2023-04-22T16:19:57.070Z,1.30
2023-04-22T16:22:23.985Z,1.70
2023-04-22T16:24:51.281Z,1.40
2023-04-22T16:27:19.128Z,1.77
2023-04-22T16:29:46.137Z,1.10
2023-04-22T16:32:12.971Z,2.07
2023-04-22T16:34:39.836Z,1.53
2023-04-22T16:37:06.811Z,1.77
2023-04-22T16:39:34.186Z,1.00
2023-04-22T16:42:03.006Z,2.10
2023-04-22T16:44:29.946Z,1.57
2023-04-22T16:46:56.853Z,1.77
2023-04-22T16:49:23.741Z,2.77
2023-04-22T16:51:50.642Z,1.03
2023-04-22T16:54:17.460Z,2.13
2023-04-22T16:56:44.315Z,2.30
2023-04-22T16:59:11.315Z,1.70
2023-04-22T17:01:38.231Z,2.13
2023-04-22T17:04:05.133Z,2.20
2023-04-22T17:06:32.487Z,1.30
2023-04-22T17:08:59.895Z,1.47
2023-04-22T17:11:26.780Z,1.67
2023-04-22T17:13:53.708Z,1.10
2023-04-22T17:16:20.933Z,1.30
2023-04-22T17:18:47.971Z,1.37
2023-04-22T17:21:16.602Z,1.57
2023-04-22T17:23:43.480Z,2.43
2023-04-22T17:26:10.336Z,3.37
2023-04-22T17:28:37.179Z,2.17
2023-04-22T17:31:04.185Z,1.63
2023-04-22T17:33:31.244Z,2.13
2023-04-22T17:35:58.169Z,2.17
2023-04-22T17:38:25.019Z,2.60
2023-04-22T17:40:51.885Z,3.77
2023-04-22T17:43:18.753Z,2.83
2023-04-22T17:45:45.659Z,2.10
2023-04-22T17:48:12.518Z,3.13
2023-04-22T17:50:39.390Z,2.27
2023-04-22T17:53:06.303Z,6.40
2023-04-22T17:55:35.303Z,4.00
2023-04-22T17:58:03.691Z,2.33
2023-04-22T18:00:31.838Z,2.23
2023-04-22T18:02:59.144Z,3.30
2023-04-22T18:05:27.242Z,1.73
2023-04-22T18:08:00.793Z,1.80
2023-04-22T18:10:28.400Z,3.13
2023-04-22T18:12:55.427Z,4.00
2023-04-22T18:15:25.625Z,2.90
2023-04-22T18:17:52.587Z,2.13
2023-04-22T18:20:19.857Z,1.47
2023-04-22T18:22:49.324Z,2.33
2023-04-22T18:25:16.435Z,3.30
2023-04-22T18:27:43.854Z,4.20
2023-04-22T18:30:11.202Z,3.47
2023-04-22T18:32:38.272Z,3.83
2023-04-22T18:35:06.065Z,2.13
2023-04-22T18:37:34.590Z,2.70
2023-04-22T18:40:02.308Z,2.13
2023-04-22T18:42:29.142Z,2.67
2023-04-22T18:44:56.119Z,5.23
2023-04-22T18:47:23.071Z,2.20
2023-04-22T18:49:50.022Z,2.77
2023-04-22T18:52:17.201Z,4.63
2023-04-22T18:54:44.508Z,4.60
2023-04-22T18:57:11.507Z,4.03
2023-04-22T18:59:38.701Z,2.87
2023-04-22T19:02:05.998Z,3.60
2023-04-22T19:04:32.978Z,2.20
2023-04-22T19:06:59.908Z,2.60
2023-04-22T19:09:26.846Z,4.47
2023-04-22T19:11:53.892Z,2.70
2023-04-22T19:14:20.777Z,2.97
2023-04-22T19:16:47.583Z,2.60
2023-04-22T19:19:14.755Z,4.10
2023-04-22T19:21:41.637Z,2.90
2023-04-22T19:24:09.654Z,3.17
2023-04-22T19:26:36.772Z,3.53
2023-04-22T19:29:03.789Z,3.90
2023-04-22T19:31:30.968Z,2.70
2023-04-22T19:33:58.248Z,5.03
2023-04-22T19:36:25.323Z,2.93
2023-04-22T19:38:52.091Z,2.33
2023-04-22T19:41:18.907Z,2.27
2023-04-22T19:43:46.164Z,2.47
2023-04-22T19:46:13.178Z,2.13
2023-04-22T19:48:40.906Z,3.73
2023-04-22T19:51:08.019Z,2.20
2023-04-22T19:53:35.489Z,3.20
2023-04-22T19:56:03.013Z,2.60
2023-04-22T19:58:30.625Z,3.73
2023-04-22T20:00:57.668Z,4.20
2023-04-22T20:03:25.085Z,4.70
2023-04-22T20:05:52.661Z,3.17
2023-04-22T20:08:20.086Z,4.17
2023-04-22T20:10:49.603Z,2.23
2023-04-22T20:13:17.564Z,3.83
2023-04-22T20:15:44.740Z,2.97
2023-04-22T20:18:12.093Z,4.03
2023-04-22T20:20:41.441Z,3.03
2023-04-22T20:23:12.760Z,1.80
2023-04-22T20:25:47.135Z,2.40
2023-04-22T20:28:14.553Z,3.43
2023-04-22T20:30:41.773Z,3.70
2023-04-22T20:33:12.305Z,2.00
2023-04-22T20:35:40.964Z,2.67
2023-04-22T20:38:13.036Z,3.10
2023-04-22T20:40:40.563Z,3.90
2023-04-22T20:43:07.729Z,2.03
2023-04-22T20:45:35.116Z,3.70
2023-04-22T20:48:02.410Z,2.33
2023-04-22T20:50:33.444Z,2.77
2023-04-22T20:53:01.151Z,3.30
2023-04-22T20:55:27.963Z,2.27
2023-04-22T20:57:54.976Z,4.40
2023-04-22T21:00:22.307Z,4.63
2023-04-22T21:02:50.288Z,4.27
2023-04-22T21:05:17.868Z,4.50
2023-04-22T21:07:47.522Z,3.87
2023-04-22T21:10:14.781Z,4.67
2023-04-22T21:12:42.046Z,4.03
2023-04-22T21:15:09.823Z,3.63
2023-04-22T21:17:41.302Z,2.57
2023-04-22T21:20:09.370Z,3.07
2023-04-22T21:22:37.721Z,3.13
2023-04-22T21:25:05.928Z,3.30
2023-04-22T21:27:33.036Z,4.53
2023-04-22T21:30:00.700Z,2.60
2023-04-22T21:32:29.400Z,4.23
2023-04-22T21:34:56.792Z,4.13
2023-04-22T21:37:23.972Z,4.40
2023-04-22T21:39:50.762Z,3.20
2023-04-22T21:42:17.569Z,2.60
2023-04-22T21:44:49.551Z,2.73
2023-04-22T21:47:16.702Z,3.10
2023-04-22T21:49:45.829Z,2.50
2023-04-22T21:52:12.604Z,2.47
2023-04-22T21:54:39.637Z,3.57
2023-04-22T21:57:06.658Z,4.87
2023-04-22T21:59:33.513Z,4.30
2023-04-22T22:02:00.357Z,3.33
2023-04-22T22:04:27.250Z,5.10
2023-04-22T22:06:54.161Z,3.00
2023-04-22T22:09:21.328Z,2.50
2023-04-22T22:11:48.220Z,3.53
2023-04-22T22:14:15.070Z,3.17
2023-04-22T22:16:42.402Z,4.20
2023-04-22T22:19:10.436Z,2.90
2023-04-22T22:21:37.822Z,4.30
2023-04-22T22:24:04.753Z,4.43
2023-04-22T22:26:31.592Z,2.57
2023-04-22T22:28:58.443Z,5.00
2023-04-22T22:31:25.372Z,3.90
2023-04-22T22:33:52.292Z,3.00
2023-04-22T22:36:19.688Z,3.83
2023-04-22T22:38:46.688Z,3.90
2023-04-22T22:41:14.040Z,3.07
2023-04-22T22:43:40.877Z,3.03
2023-04-22T22:46:07.851Z,3.10
2023-04-22T22:48:34.962Z,3.90
2023-04-22T22:51:01.747Z,2.63
2023-04-22T22:53:28.636Z,3.53
2023-04-22T22:55:55.492Z,2.80
2023-04-22T22:58:22.297Z,3.80
2023-04-22T23:00:49.253Z,3.57
2023-04-22T23:03:19.164Z,3.47
2023-04-22T23:05:46.726Z,2.77
2023-04-22T23:08:14.651Z,3.03
2023-04-22T23:10:41.541Z,3.03
2023-04-22T23:13:08.363Z,3.00
2023-04-22T23:15:35.265Z,3.37
2023-04-22T23:18:02.534Z,2.73
2023-04-22T23:20:30.598Z,4.40
2023-04-22T23:22:58.065Z,3.43
2023-04-22T23:25:25.302Z,3.23
2023-04-22T23:27:52.822Z,3.57
2023-04-22T23:30:20.403Z,5.53
2023-04-22T23:32:48.824Z,3.37
2023-04-22T23:35:16.084Z,3.10
2023-04-22T23:37:46.937Z,3.70
2023-04-22T23:40:14.051Z,2.77
2023-04-22T23:42:40.934Z,2.97
2023-04-22T23:45:08.695Z,3.17
2023-04-22T23:47:35.792Z,4.90
2023-04-22T23:50:03.497Z,4.20
2023-04-22T23:52:30.390Z,3.50
2023-04-22T23:54:57.914Z,3.50
2023-04-22T23:57:25.300Z,3.50
2023-04-22T23:59:52.389Z,3.63
